Terminal Aerodrome Forecast
Issued by NWS North Platte, NE

Home | Current Version | Previous Version | Text Only | Print | Product List | Glossary On
Versions: 1 2 3 4 5 6 7 8 9 10 11 12 13
858
FTUS43 KLBF 252322
TAFVTN
TAF
KVTN 252322Z 2600/2624 02008KT P6SM FEW060 SCT100 BKN250
     FM260200 34007KT P6SM BKN100 BKN250
     FM260600 32010KT P6SM SCT250
     FM261700 35009KT P6SM FEW250=

USA.gov is the U.S. government's official web portal to all federal, state and local government web resources and services.